sensor_id;sensor_type;location;lat;lon;timestamp;P1;durP1;ratioP1;P2;durP2;ratioP2
10315;SDS011;5203;48.976;8.306;2023-09-19T00:02:02;459.03;;;443.27;;
10315;SDS011;5203;48.976;8.306;2023-09-19T00:04:33;425.37;;;412.43;;
10315;SDS011;5203;48.976;8.306;2023-09-19T00:06:59;427.87;;;414.63;;
10315;SDS011;5203;48.976;8.306;2023-09-19T00:09:27;401.10;;;388.80;;
10315;SDS011;5203;48.976;8.306;2023-09-19T00:11:53;414.10;;;401.17;;
10315;SDS011;5203;48.976;8.306;2023-09-19T00:14:19;432.50;;;418.93;;
10315;SDS011;5203;48.976;8.306;2023-09-19T00:16:49;416.07;;;403.17;;
10315;SDS011;5203;48.976;8.306;2023-09-19T00:19:16;452.17;;;437.97;;
10315;SDS011;5203;48.976;8.306;2023-09-19T00:21:42;424.10;;;410.90;;
10315;SDS011;5203;48.976;8.306;2023-09-19T00:24:08;446.80;;;432.87;;
10315;SDS011;5203;48.976;8.306;2023-09-19T00:26:36;588.43;;;561.57;;
10315;SDS011;5203;48.976;8.306;2023-09-19T00:29:03;429.83;;;416.40;;
10315;SDS011;5203;48.976;8.306;2023-09-19T00:31:29;437.53;;;424.07;;
10315;SDS011;5203;48.976;8.306;2023-09-19T00:33:55;445.57;;;431.87;;
10315;SDS011;5203;48.976;8.306;2023-09-19T00:36:24;420.83;;;407.83;;
10315;SDS011;5203;48.976;8.306;2023-09-19T00:38:50;448.60;;;434.57;;
10315;SDS011;5203;48.976;8.306;2023-09-19T00:41:17;484.07;;;468.13;;
10315;SDS011;5203;48.976;8.306;2023-09-19T00:43:42;437.40;;;423.90;;
10315;SDS011;5203;48.976;8.306;2023-09-19T00:46:09;425.23;;;412.07;;
10315;SDS011;5203;48.976;8.306;2023-09-19T00:48:39;418.57;;;405.73;;
10315;SDS011;5203;48.976;8.306;2023-09-19T00:51:08;377.87;;;366.53;;
10315;SDS011;5203;48.976;8.306;2023-09-19T00:53:34;444.60;;;429.77;;
10315;SDS011;5203;48.976;8.306;2023-09-19T00:56:01;415.20;;;402.47;;
10315;SDS011;5203;48.976;8.306;2023-09-19T00:58:28;407.33;;;395.03;;
10315;SDS011;5203;48.976;8.306;2023-09-19T01:00:58;393.43;;;381.47;;
10315;SDS011;5203;48.976;8.306;2023-09-19T01:03:24;382.90;;;371.43;;
10315;SDS011;5203;48.976;8.306;2023-09-19T01:05:51;428.50;;;415.43;;
10315;SDS011;5203;48.976;8.306;2023-09-19T01:08:17;426.30;;;413.13;;
10315;SDS011;5203;48.976;8.306;2023-09-19T01:11:03;405.70;;;393.40;;
10315;SDS011;5203;48.976;8.306;2023-09-19T01:13:41;389.73;;;378.07;;
10315;SDS011;5203;48.976;8.306;2023-09-19T01:31:59;373.23;;;362.20;;
10315;SDS011;5203;48.976;8.306;2023-09-19T01:34:42;389.73;;;378.00;;
10315;SDS011;5203;48.976;8.306;2023-09-19T01:37:10;366.43;;;355.77;;
10315;SDS011;5203;48.976;8.306;2023-09-19T01:39:36;388.30;;;376.33;;
10315;SDS011;5203;48.976;8.306;2023-09-19T01:47:35;408.70;;;396.13;;
10315;SDS011;5203;48.976;8.306;2023-09-19T01:52:28;422.67;;;409.53;;
10315;SDS011;5203;48.976;8.306;2023-09-19T01:54:56;419.57;;;406.70;;
10315;SDS011;5203;48.976;8.306;2023-09-19T01:57:32;397.43;;;385.33;;
10315;SDS011;5203;48.976;8.306;2023-09-19T02:00:01;408.40;;;395.93;;
10315;SDS011;5203;48.976;8.306;2023-09-19T02:02:42;448.53;;;434.70;;
10315;SDS011;5203;48.976;8.306;2023-09-19T02:05:09;421.60;;;408.47;;
10315;SDS011;5203;48.976;8.306;2023-09-19T02:07:37;436.73;;;423.23;;
10315;SDS011;5203;48.976;8.306;2023-09-19T02:10:07;421.87;;;408.97;;
10315;SDS011;5203;48.976;8.306;2023-09-19T02:12:35;416.57;;;403.63;;
10315;SDS011;5203;48.976;8.306;2023-09-19T02:15:01;435.27;;;421.97;;
10315;SDS011;5203;48.976;8.306;2023-09-19T02:17:27;422.87;;;409.83;;
10315;SDS011;5203;48.976;8.306;2023-09-19T02:19:56;417.60;;;404.57;;
10315;SDS011;5203;48.976;8.306;2023-09-19T02:22:23;406.43;;;394.10;;
10315;SDS011;5203;48.976;8.306;2023-09-19T02:24:50;418.20;;;405.60;;
10315;SDS011;5203;48.976;8.306;2023-09-19T02:27:17;456.57;;;441.97;;
10315;SDS011;5203;48.976;8.306;2023-09-19T02:29:44;447.43;;;433.70;;
10315;SDS011;5203;48.976;8.306;2023-09-19T02:32:10;457.00;;;442.80;;
10315;SDS011;5203;48.976;8.306;2023-09-19T02:34:36;451.00;;;436.80;;
10315;SDS011;5203;48.976;8.306;2023-09-19T02:37:04;467.70;;;453.10;;
10315;SDS011;5203;48.976;8.306;2023-09-19T02:39:30;473.47;;;458.27;;
10315;SDS011;5203;48.976;8.306;2023-09-19T02:41:56;458.30;;;443.83;;
10315;SDS011;5203;48.976;8.306;2023-09-19T02:44:22;462.63;;;447.87;;
10315;SDS011;5203;48.976;8.306;2023-09-19T02:46:49;462.47;;;447.90;;
10315;SDS011;5203;48.976;8.306;2023-09-19T02:49:15;490.10;;;474.40;;
10315;SDS011;5203;48.976;8.306;2023-09-19T02:51:42;463.87;;;449.33;;
10315;SDS011;5203;48.976;8.306;2023-09-19T02:54:09;444.50;;;430.70;;
10315;SDS011;5203;48.976;8.306;2023-09-19T02:56:35;467.40;;;453.00;;
10315;SDS011;5203;48.976;8.306;2023-09-19T02:59:02;469.13;;;454.40;;
10315;SDS011;5203;48.976;8.306;2023-09-19T03:01:28;477.80;;;462.40;;
10315;SDS011;5203;48.976;8.306;2023-09-19T03:03:54;443.43;;;429.90;;
10315;SDS011;5203;48.976;8.306;2023-09-19T03:06:21;449.30;;;435.40;;
10315;SDS011;5203;48.976;8.306;2023-09-19T03:08:49;445.00;;;431.30;;
10315;SDS011;5203;48.976;8.306;2023-09-19T03:11:16;428.13;;;414.53;;
10315;SDS011;5203;48.976;8.306;2023-09-19T03:13:50;420.57;;;407.90;;
10315;SDS011;5203;48.976;8.306;2023-09-19T03:16:16;433.47;;;419.93;;
10315;SDS011;5203;48.976;8.306;2023-09-19T03:18:42;441.23;;;427.60;;
10315;SDS011;5203;48.976;8.306;2023-09-19T03:21:08;439.77;;;426.30;;
10315;SDS011;5203;48.976;8.306;2023-09-19T03:23:35;438.63;;;425.13;;
10315;SDS011;5203;48.976;8.306;2023-09-19T03:26:01;494.30;;;478.60;;
10315;SDS011;5203;48.976;8.306;2023-09-19T03:28:32;474.40;;;459.57;;
10315;SDS011;5203;48.976;8.306;2023-09-19T03:31:03;442.93;;;429.33;;
10315;SDS011;5203;48.976;8.306;2023-09-19T03:33:29;435.17;;;421.80;;
10315;SDS011;5203;48.976;8.306;2023-09-19T03:35:59;441.77;;;428.13;;
10315;SDS011;5203;48.976;8.306;2023-09-19T03:38:25;441.00;;;427.50;;
10315;SDS011;5203;48.976;8.306;2023-09-19T03:40:52;428.83;;;415.83;;
10315;SDS011;5203;48.976;8.306;2023-09-19T03:43:18;430.03;;;417.00;;
10315;SDS011;5203;48.976;8.306;2023-09-19T03:45:44;435.63;;;422.17;;
10315;SDS011;5203;48.976;8.306;2023-09-19T03:48:12;447.70;;;433.90;;
10315;SDS011;5203;48.976;8.306;2023-09-19T03:50:38;468.47;;;453.77;;
10315;SDS011;5203;48.976;8.306;2023-09-19T03:53:04;474.43;;;459.50;;
10315;SDS011;5203;48.976;8.306;2023-09-19T03:55:34;464.03;;;449.33;;
10315;SDS011;5203;48.976;8.306;2023-09-19T03:58:01;473.10;;;458.13;;
10315;SDS011;5203;48.976;8.306;2023-09-19T04:00:27;488.10;;;472.73;;
10315;SDS011;5203;48.976;8.306;2023-09-19T04:02:54;456.90;;;442.87;;
10315;SDS011;5203;48.976;8.306;2023-09-19T04:05:22;433.90;;;420.30;;
10315;SDS011;5203;48.976;8.306;2023-09-19T04:07:48;458.47;;;444.33;;
10315;SDS011;5203;48.976;8.306;2023-09-19T04:10:15;509.53;;;493.23;;
10315;SDS011;5203;48.976;8.306;2023-09-19T04:12:50;497.03;;;481.03;;
10315;SDS011;5203;48.976;8.306;2023-09-19T04:15:17;498.03;;;482.00;;
10315;SDS011;5203;48.976;8.306;2023-09-19T04:17:42;488.10;;;472.77;;
10315;SDS011;5203;48.976;8.306;2023-09-19T04:20:09;501.47;;;485.40;;
10315;SDS011;5203;48.976;8.306;2023-09-19T04:22:37;470.17;;;455.40;;
10315;SDS011;5203;48.976;8.306;2023-09-19T04:25:04;494.93;;;479.03;;
10315;SDS011;5203;48.976;8.306;2023-09-19T04:27:33;501.80;;;485.77;;
10315;SDS011;5203;48.976;8.306;2023-09-19T04:29:59;482.00;;;466.67;;
10315;SDS011;5203;48.976;8.306;2023-09-19T04:32:30;479.13;;;464.00;;
10315;SDS011;5203;48.976;8.306;2023-09-19T04:34:57;500.93;;;484.87;;
10315;SDS011;5203;48.976;8.306;2023-09-19T04:37:25;498.10;;;482.20;;
10315;SDS011;5203;48.976;8.306;2023-09-19T04:39:51;486.93;;;471.50;;
10315;SDS011;5203;48.976;8.306;2023-09-19T04:42:17;510.63;;;494.27;;
10315;SDS011;5203;48.976;8.306;2023-09-19T04:44:44;512.07;;;495.43;;
10315;SDS011;5203;48.976;8.306;2023-09-19T04:47:10;498.83;;;482.77;;
10315;SDS011;5203;48.976;8.306;2023-09-19T04:49:37;476.67;;;461.77;;
10315;SDS011;5203;48.976;8.306;2023-09-19T04:52:04;434.30;;;420.83;;
10315;SDS011;5203;48.976;8.306;2023-09-19T04:54:31;434.37;;;421.20;;
10315;SDS011;5203;48.976;8.306;2023-09-19T04:56:59;426.77;;;413.60;;
10315;SDS011;5203;48.976;8.306;2023-09-19T04:59:25;431.97;;;418.87;;
10315;SDS011;5203;48.976;8.306;2023-09-19T05:01:53;466.73;;;451.93;;
10315;SDS011;5203;48.976;8.306;2023-09-19T05:04:19;460.50;;;446.10;;
10315;SDS011;5203;48.976;8.306;2023-09-19T05:06:45;414.83;;;402.23;;
10315;SDS011;5203;48.976;8.306;2023-09-19T05:09:11;429.83;;;416.80;;
10315;SDS011;5203;48.976;8.306;2023-09-19T05:11:38;426.97;;;413.87;;
10315;SDS011;5203;48.976;8.306;2023-09-19T05:14:04;413.43;;;400.77;;
10315;SDS011;5203;48.976;8.306;2023-09-19T05:16:30;409.07;;;396.63;;
10315;SDS011;5203;48.976;8.306;2023-09-19T05:18:57;430.77;;;417.60;;
10315;SDS011;5203;48.976;8.306;2023-09-19T05:21:25;429.27;;;416.20;;
10315;SDS011;5203;48.976;8.306;2023-09-19T05:23:53;422.40;;;409.30;;
10315;SDS011;5203;48.976;8.306;2023-09-19T05:26:19;408.93;;;396.40;;
10315;SDS011;5203;48.976;8.306;2023-09-19T05:28:45;406.30;;;393.87;;
10315;SDS011;5203;48.976;8.306;2023-09-19T05:31:13;408.67;;;396.10;;
10315;SDS011;5203;48.976;8.306;2023-09-19T05:33:40;408.73;;;396.30;;
10315;SDS011;5203;48.976;8.306;2023-09-19T05:36:07;421.27;;;408.40;;
10315;SDS011;5203;48.976;8.306;2023-09-19T05:38:35;410.33;;;397.70;;
10315;SDS011;5203;48.976;8.306;2023-09-19T05:41:02;403.57;;;391.30;;
10315;SDS011;5203;48.976;8.306;2023-09-19T05:43:28;415.93;;;403.17;;
10315;SDS011;5203;48.976;8.306;2023-09-19T05:45:54;418.97;;;406.30;;
10315;SDS011;5203;48.976;8.306;2023-09-19T05:48:21;468.47;;;453.17;;
10315;SDS011;5203;48.976;8.306;2023-09-19T05:50:47;470.17;;;455.30;;
10315;SDS011;5203;48.976;8.306;2023-09-19T05:53:16;428.20;;;415.20;;
10315;SDS011;5203;48.976;8.306;2023-09-19T05:55:43;413.87;;;401.13;;
10315;SDS011;5203;48.976;8.306;2023-09-19T05:58:10;438.90;;;425.33;;
10315;SDS011;5203;48.976;8.306;2023-09-19T06:00:39;432.27;;;418.93;;
10315;SDS011;5203;48.976;8.306;2023-09-19T06:03:07;398.77;;;386.77;;
10315;SDS011;5203;48.976;8.306;2023-09-19T06:05:34;412.63;;;399.80;;
10315;SDS011;5203;48.976;8.306;2023-09-19T06:08:00;390.30;;;378.57;;
10315;SDS011;5203;48.976;8.306;2023-09-19T06:10:32;411.93;;;398.90;;
10315;SDS011;5203;48.976;8.306;2023-09-19T06:13:00;423.07;;;410.07;;
10315;SDS011;5203;48.976;8.306;2023-09-19T06:15:29;408.20;;;395.80;;
10315;SDS011;5203;48.976;8.306;2023-09-19T06:17:57;382.43;;;371.00;;
10315;SDS011;5203;48.976;8.306;2023-09-19T06:20:24;425.23;;;411.87;;
10315;SDS011;5203;48.976;8.306;2023-09-19T06:22:51;411.40;;;398.60;;
10315;SDS011;5203;48.976;8.306;2023-09-19T06:25:17;392.77;;;381.13;;
10315;SDS011;5203;48.976;8.306;2023-09-19T06:27:50;387.10;;;375.60;;
10315;SDS011;5203;48.976;8.306;2023-09-19T06:30:20;391.53;;;379.73;;
10315;SDS011;5203;48.976;8.306;2023-09-19T06:32:46;401.47;;;389.30;;
10315;SDS011;5203;48.976;8.306;2023-09-19T06:35:13;417.37;;;404.57;;
10315;SDS011;5203;48.976;8.306;2023-09-19T06:37:40;426.67;;;413.27;;
10315;SDS011;5203;48.976;8.306;2023-09-19T06:40:10;392.63;;;380.83;;
10315;SDS011;5203;48.976;8.306;2023-09-19T06:42:46;401.03;;;388.87;;
10315;SDS011;5203;48.976;8.306;2023-09-19T06:45:13;385.90;;;374.40;;
10315;SDS011;5203;48.976;8.306;2023-09-19T06:47:43;394.00;;;382.07;;
10315;SDS011;5203;48.976;8.306;2023-09-19T06:50:10;385.73;;;374.20;;
10315;SDS011;5203;48.976;8.306;2023-09-19T06:52:42;405.60;;;392.90;;
10315;SDS011;5203;48.976;8.306;2023-09-19T06:55:08;405.47;;;393.27;;
10315;SDS011;5203;48.976;8.306;2023-09-19T06:57:38;399.20;;;386.83;;
10315;SDS011;5203;48.976;8.306;2023-09-19T07:00:11;375.40;;;364.03;;
10315;SDS011;5203;48.976;8.306;2023-09-19T07:03:04;364.27;;;353.17;;
10315;SDS011;5203;48.976;8.306;2023-09-19T07:05:33;388.80;;;376.77;;
10315;SDS011;5203;48.976;8.306;2023-09-19T07:08:02;406.40;;;393.70;;
10315;SDS011;5203;48.976;8.306;2023-09-19T07:10:29;390.67;;;378.93;;
10315;SDS011;5203;48.976;8.306;2023-09-19T07:12:59;404.57;;;392.07;;
10315;SDS011;5203;48.976;8.306;2023-09-19T07:15:25;381.93;;;370.33;;
10315;SDS011;5203;48.976;8.306;2023-09-19T07:17:52;399.23;;;387.13;;
10315;SDS011;5203;48.976;8.306;2023-09-19T07:20:19;375.60;;;364.33;;
10315;SDS011;5203;48.976;8.306;2023-09-19T07:22:45;382.73;;;371.10;;
10315;SDS011;5203;48.976;8.306;2023-09-19T07:25:12;379.83;;;368.27;;
10315;SDS011;5203;48.976;8.306;2023-09-19T07:27:39;373.10;;;362.03;;
10315;SDS011;5203;48.976;8.306;2023-09-19T07:30:07;331.57;;;321.23;;
10315;SDS011;5203;48.976;8.306;2023-09-19T07:32:33;345.00;;;334.67;;
10315;SDS011;5203;48.976;8.306;2023-09-19T07:35:02;338.63;;;328.33;;
10315;SDS011;5203;48.976;8.306;2023-09-19T07:37:29;333.07;;;323.23;;
10315;SDS011;5203;48.976;8.306;2023-09-19T07:39:58;343.87;;;333.60;;
10315;SDS011;5203;48.976;8.306;2023-09-19T07:42:24;337.60;;;327.67;;
10315;SDS011;5203;48.976;8.306;2023-09-19T07:44:50;354.53;;;344.03;;
10315;SDS011;5203;48.976;8.306;2023-09-19T07:47:18;353.33;;;342.93;;
10315;SDS011;5203;48.976;8.306;2023-09-19T07:49:46;357.30;;;346.53;;
10315;SDS011;5203;48.976;8.306;2023-09-19T07:52:12;333.43;;;323.47;;
10315;SDS011;5203;48.976;8.306;2023-09-19T07:54:39;333.47;;;323.40;;
10315;SDS011;5203;48.976;8.306;2023-09-19T07:57:09;354.80;;;344.07;;
10315;SDS011;5203;48.976;8.306;2023-09-19T07:59:36;338.17;;;328.10;;
10315;SDS011;5203;48.976;8.306;2023-09-19T08:02:03;355.30;;;344.83;;
10315;SDS011;5203;48.976;8.306;2023-09-19T08:04:29;358.03;;;347.30;;
10315;SDS011;5203;48.976;8.306;2023-09-19T08:06:58;366.77;;;355.00;;
10315;SDS011;5203;48.976;8.306;2023-09-19T08:09:25;319.07;;;309.83;;
10315;SDS011;5203;48.976;8.306;2023-09-19T08:11:52;267.33;;;259.67;;
10315;SDS011;5203;48.976;8.306;2023-09-19T08:14:19;282.25;;;274.10;;
10315;SDS011;5203;48.976;8.306;2023-09-19T08:16:45;284.33;;;275.90;;
10315;SDS011;5203;48.976;8.306;2023-09-19T08:19:11;278.48;;;270.35;;
10315;SDS011;5203;48.976;8.306;2023-09-19T08:21:37;325.45;;;316.10;;
10315;SDS011;5203;48.976;8.306;2023-09-19T08:24:03;310.95;;;301.92;;
10315;SDS011;5203;48.976;8.306;2023-09-19T08:26:29;334.80;;;324.38;;
10315;SDS011;5203;48.976;8.306;2023-09-19T08:28:56;352.05;;;341.50;;
10315;SDS011;5203;48.976;8.306;2023-09-19T08:31:22;399.30;;;387.08;;
10315;SDS011;5203;48.976;8.306;2023-09-19T08:33:50;326.20;;;316.67;;
10315;SDS011;5203;48.976;8.306;2023-09-19T08:36:18;455.15;;;441.02;;
10315;SDS011;5203;48.976;8.306;2023-09-19T08:38:44;440.38;;;426.70;;
10315;SDS011;5203;48.976;8.306;2023-09-19T08:41:10;526.35;;;509.08;;
10315;SDS011;5203;48.976;8.306;2023-09-19T08:43:36;517.00;;;500.20;;
10315;SDS011;5203;48.976;8.306;2023-09-19T08:48:31;469.83;;;453.73;;
10315;SDS011;5203;48.976;8.306;2023-09-19T08:53:30;490.20;;;474.35;;
10315;SDS011;5203;48.976;8.306;2023-09-19T08:55:57;457.63;;;443.27;;
10315;SDS011;5203;48.976;8.306;2023-09-19T08:58:31;516.40;;;499.98;;
10315;SDS011;5203;48.976;8.306;2023-09-19T09:00:58;489.95;;;474.25;;
10315;SDS011;5203;48.976;8.306;2023-09-19T09:03:26;459.45;;;445.00;;
10315;SDS011;5203;48.976;8.306;2023-09-19T09:05:52;482.90;;;467.23;;
10315;SDS011;5203;48.976;8.306;2023-09-19T09:08:19;502.60;;;486.00;;
10315;SDS011;5203;48.976;8.306;2023-09-19T09:10:46;490.02;;;474.45;;
10315;SDS011;5203;48.976;8.306;2023-09-19T09:13:13;492.30;;;476.55;;
10315;SDS011;5203;48.976;8.306;2023-09-19T09:15:40;376.65;;;365.45;;
10315;SDS011;5203;48.976;8.306;2023-09-19T09:18:07;434.10;;;420.92;;
10315;SDS011;5203;48.976;8.306;2023-09-19T09:20:33;418.73;;;406.05;;
10315;SDS011;5203;48.976;8.306;2023-09-19T09:23:01;424.58;;;411.60;;
10315;SDS011;5203;48.976;8.306;2023-09-19T09:28:18;413.60;;;401.25;;
10315;SDS011;5203;48.976;8.306;2023-09-19T09:30:45;1999.90;;;999.90;;
10315;SDS011;5203;48.976;8.306;2023-09-19T09:33:11;1999.90;;;999.90;;
10315;SDS011;5203;48.976;8.306;2023-09-19T09:35:55;1999.90;;;999.90;;
10315;SDS011;5203;48.976;8.306;2023-09-19T09:38:25;1999.90;;;999.90;;
10315;SDS011;5203;48.976;8.306;2023-09-19T09:40:54;1999.90;;;999.90;;
10315;SDS011;5203;48.976;8.306;2023-09-19T09:43:37;1999.90;;;999.90;;
10315;SDS011;5203;48.976;8.306;2023-09-19T09:49:02;1999.90;;;999.90;;
10315;SDS011;5203;48.976;8.306;2023-09-19T09:51:48;1999.90;;;999.90;;
10315;SDS011;5203;48.976;8.306;2023-09-19T09:54:28;1999.90;;;999.90;;
10315;SDS011;5203;48.976;8.306;2023-09-19T09:57:10;1999.90;;;999.90;;
10315;SDS011;5203;48.976;8.306;2023-09-19T09:59:46;1999.90;;;999.90;;
10315;SDS011;5203;48.976;8.306;2023-09-19T10:02:19;1999.90;;;999.90;;
10315;SDS011;5203;48.976;8.306;2023-09-19T10:04:53;1999.90;;;999.90;;
10315;SDS011;5203;48.976;8.306;2023-09-19T10:07:39;1999.90;;;999.90;;
10315;SDS011;5203;48.976;8.306;2023-09-19T10:10:14;1999.90;;;999.90;;
10315;SDS011;5203;48.976;8.306;2023-09-19T10:12:46;1999.90;;;999.90;;
10315;SDS011;5203;48.976;8.306;2023-09-19T10:15:18;1999.90;;;999.90;;
10315;SDS011;5203;48.976;8.306;2023-09-19T10:17:49;1999.90;;;999.90;;
10315;SDS011;5203;48.976;8.306;2023-09-19T10:20:19;1999.90;;;999.90;;
10315;SDS011;5203;48.976;8.306;2023-09-19T10:23:04;1999.90;;;999.90;;
10315;SDS011;5203;48.976;8.306;2023-09-19T10:25:34;1999.90;;;999.90;;
10315;SDS011;5203;48.976;8.306;2023-09-19T10:28:02;1999.90;;;999.90;;
10315;SDS011;5203;48.976;8.306;2023-09-19T10:30:29;1999.90;;;999.90;;
10315;SDS011;5203;48.976;8.306;2023-09-19T10:33:02;1999.90;;;999.90;;
10315;SDS011;5203;48.976;8.306;2023-09-19T10:35:29;1999.90;;;999.90;;
10315;SDS011;5203;48.976;8.306;2023-09-19T10:37:57;1999.90;;;999.90;;
10315;SDS011;5203;48.976;8.306;2023-09-19T10:40:26;1999.90;;;999.90;;
10315;SDS011;5203;48.976;8.306;2023-09-19T10:42:58;1999.90;;;999.90;;
10315;SDS011;5203;48.976;8.306;2023-09-19T10:45:26;1999.90;;;999.90;;
10315;SDS011;5203;48.976;8.306;2023-09-19T10:47:54;1999.90;;;999.90;;
10315;SDS011;5203;48.976;8.306;2023-09-19T10:50:21;1999.90;;;999.90;;
10315;SDS011;5203;48.976;8.306;2023-09-19T10:52:47;1999.90;;;999.90;;
10315;SDS011;5203;48.976;8.306;2023-09-19T10:55:17;1999.90;;;999.90;;
10315;SDS011;5203;48.976;8.306;2023-09-19T10:57:46;1999.90;;;999.90;;
10315;SDS011;5203;48.976;8.306;2023-09-19T11:00:13;1999.90;;;999.90;;
10315;SDS011;5203;48.976;8.306;2023-09-19T11:05:34;1999.90;;;999.90;;
10315;SDS011;5203;48.976;8.306;2023-09-19T11:08:03;1999.90;;;999.90;;
10315;SDS011;5203;48.976;8.306;2023-09-19T11:13:27;1999.90;;;999.90;;
10315;SDS011;5203;48.976;8.306;2023-09-19T11:26:57;1999.90;;;999.90;;
10315;SDS011;5203;48.976;8.306;2023-09-19T11:29:34;1999.90;;;999.90;;
10315;SDS011;5203;48.976;8.306;2023-09-19T11:32:01;1999.90;;;999.90;;
10315;SDS011;5203;48.976;8.306;2023-09-19T11:37:03;1999.90;;;999.90;;
10315;SDS011;5203;48.976;8.306;2023-09-19T11:39:29;1999.90;;;999.90;;
10315;SDS011;5203;48.976;8.306;2023-09-19T11:41:56;1999.90;;;999.90;;
10315;SDS011;5203;48.976;8.306;2023-09-19T11:44:31;1999.90;;;999.90;;
10315;SDS011;5203;48.976;8.306;2023-09-19T11:47:03;1999.90;;;999.90;;
10315;SDS011;5203;48.976;8.306;2023-09-19T11:49:31;1999.90;;;999.90;;
10315;SDS011;5203;48.976;8.306;2023-09-19T11:51:59;1999.90;;;999.90;;
10315;SDS011;5203;48.976;8.306;2023-09-19T11:54:26;1999.90;;;999.90;;
10315;SDS011;5203;48.976;8.306;2023-09-19T11:56:56;1999.90;;;999.90;;
10315;SDS011;5203;48.976;8.306;2023-09-19T11:59:23;1999.90;;;999.90;;
10315;SDS011;5203;48.976;8.306;2023-09-19T12:01:56;1999.90;;;999.90;;
10315;SDS011;5203;48.976;8.306;2023-09-19T12:04:35;1999.90;;;999.90;;
10315;SDS011;5203;48.976;8.306;2023-09-19T12:09:35;1999.90;;;999.90;;
10315;SDS011;5203;48.976;8.306;2023-09-19T12:12:01;1999.90;;;999.90;;
10315;SDS011;5203;48.976;8.306;2023-09-19T12:14:27;1999.90;;;999.90;;
10315;SDS011;5203;48.976;8.306;2023-09-19T12:16:54;1999.90;;;999.90;;
10315;SDS011;5203;48.976;8.306;2023-09-19T12:19:21;1999.90;;;999.90;;
10315;SDS011;5203;48.976;8.306;2023-09-19T12:21:54;1999.90;;;999.90;;
10315;SDS011;5203;48.976;8.306;2023-09-19T12:24:23;1999.90;;;999.90;;
10315;SDS011;5203;48.976;8.306;2023-09-19T12:26:51;1999.90;;;999.90;;
10315;SDS011;5203;48.976;8.306;2023-09-19T12:29:21;1999.90;;;999.90;;
10315;SDS011;5203;48.976;8.306;2023-09-19T12:31:51;1999.90;;;999.90;;
10315;SDS011;5203;48.976;8.306;2023-09-19T12:34:21;1999.90;;;999.90;;
10315;SDS011;5203;48.976;8.306;2023-09-19T12:36:48;1999.90;;;999.90;;
10315;SDS011;5203;48.976;8.306;2023-09-19T12:39:23;1999.90;;;999.90;;
10315;SDS011;5203;48.976;8.306;2023-09-19T12:41:50;1999.90;;;999.90;;
10315;SDS011;5203;48.976;8.306;2023-09-19T12:44:18;1999.90;;;999.90;;
10315;SDS011;5203;48.976;8.306;2023-09-19T12:46:44;1999.90;;;999.90;;
10315;SDS011;5203;48.976;8.306;2023-09-19T12:49:19;1999.90;;;999.90;;
10315;SDS011;5203;48.976;8.306;2023-09-19T12:51:46;1999.90;;;999.90;;
10315;SDS011;5203;48.976;8.306;2023-09-19T12:54:13;1999.90;;;999.90;;
10315;SDS011;5203;48.976;8.306;2023-09-19T12:56:42;1999.90;;;999.90;;
10315;SDS011;5203;48.976;8.306;2023-09-19T12:59:15;1999.90;;;999.90;;
10315;SDS011;5203;48.976;8.306;2023-09-19T13:01:41;1999.90;;;999.90;;
10315;SDS011;5203;48.976;8.306;2023-09-19T13:04:19;1999.90;;;999.90;;
10315;SDS011;5203;48.976;8.306;2023-09-19T13:06:46;1999.90;;;999.90;;
10315;SDS011;5203;48.976;8.306;2023-09-19T13:09:13;1999.90;;;999.90;;
10315;SDS011;5203;48.976;8.306;2023-09-19T13:11:43;1999.90;;;999.90;;
10315;SDS011;5203;48.976;8.306;2023-09-19T13:16:52;1999.90;;;999.90;;
10315;SDS011;5203;48.976;8.306;2023-09-19T13:20:04;1999.90;;;999.90;;
10315;SDS011;5203;48.976;8.306;2023-09-19T13:22:35;1999.90;;;999.90;;
10315;SDS011;5203;48.976;8.306;2023-09-19T13:24:51;1999.90;;;999.90;;
10315;SDS011;5203;48.976;8.306;2023-09-19T13:27:17;1999.90;;;999.90;;
10315;SDS011;5203;48.976;8.306;2023-09-19T13:29:43;1999.90;;;999.90;;
10315;SDS011;5203;48.976;8.306;2023-09-19T13:32:09;1999.90;;;999.90;;
10315;SDS011;5203;48.976;8.306;2023-09-19T13:34:36;1999.90;;;999.90;;
10315;SDS011;5203;48.976;8.306;2023-09-19T13:37:03;1999.90;;;999.90;;
10315;SDS011;5203;48.976;8.306;2023-09-19T13:39:29;1999.90;;;999.90;;
10315;SDS011;5203;48.976;8.306;2023-09-19T13:41:55;1999.90;;;999.90;;
10315;SDS011;5203;48.976;8.306;2023-09-19T13:44:22;1999.90;;;999.90;;
10315;SDS011;5203;48.976;8.306;2023-09-19T13:46:48;1999.90;;;999.90;;
10315;SDS011;5203;48.976;8.306;2023-09-19T13:49:14;1999.90;;;999.90;;
10315;SDS011;5203;48.976;8.306;2023-09-19T13:51:40;1999.90;;;999.90;;
10315;SDS011;5203;48.976;8.306;2023-09-19T13:54:08;1999.90;;;999.90;;
10315;SDS011;5203;48.976;8.306;2023-09-19T13:56:37;1999.90;;;999.90;;
10315;SDS011;5203;48.976;8.306;2023-09-19T13:59:03;1999.90;;;999.90;;
10315;SDS011;5203;48.976;8.306;2023-09-19T14:01:29;1999.90;;;999.90;;
10315;SDS011;5203;48.976;8.306;2023-09-19T14:03:55;1999.90;;;999.90;;
10315;SDS011;5203;48.976;8.306;2023-09-19T14:06:22;1999.90;;;999.90;;
10315;SDS011;5203;48.976;8.306;2023-09-19T14:08:48;1999.90;;;999.90;;
10315;SDS011;5203;48.976;8.306;2023-09-19T14:11:15;1999.90;;;999.90;;
10315;SDS011;5203;48.976;8.306;2023-09-19T14:13:41;1999.90;;;999.90;;
10315;SDS011;5203;48.976;8.306;2023-09-19T14:16:12;1999.90;;;999.90;;
10315;SDS011;5203;48.976;8.306;2023-09-19T14:18:38;1999.90;;;999.90;;
10315;SDS011;5203;48.976;8.306;2023-09-19T14:21:05;1999.90;;;999.90;;
10315;SDS011;5203;48.976;8.306;2023-09-19T14:23:37;1999.90;;;999.90;;
10315;SDS011;5203;48.976;8.306;2023-09-19T14:26:04;1999.90;;;999.90;;
10315;SDS011;5203;48.976;8.306;2023-09-19T14:28:31;1999.90;;;999.90;;
10315;SDS011;5203;48.976;8.306;2023-09-19T14:31:03;1999.90;;;999.90;;
10315;SDS011;5203;48.976;8.306;2023-09-19T14:33:30;1999.90;;;999.90;;
10315;SDS011;5203;48.976;8.306;2023-09-19T14:35:56;1999.90;;;999.90;;
10315;SDS011;5203;48.976;8.306;2023-09-19T14:38:22;1999.90;;;999.90;;
10315;SDS011;5203;48.976;8.306;2023-09-19T14:40:48;1999.90;;;999.90;;
10315;SDS011;5203;48.976;8.306;2023-09-19T14:43:15;1999.90;;;999.90;;
10315;SDS011;5203;48.976;8.306;2023-09-19T14:45:41;1999.90;;;999.90;;
10315;SDS011;5203;48.976;8.306;2023-09-19T14:48:08;1999.90;;;999.90;;
10315;SDS011;5203;48.976;8.306;2023-09-19T14:50:34;1999.90;;;999.90;;
10315;SDS011;5203;48.976;8.306;2023-09-19T14:53:00;1999.90;;;999.90;;
10315;SDS011;5203;48.976;8.306;2023-09-19T14:55:27;1999.90;;;999.90;;
10315;SDS011;5203;48.976;8.306;2023-09-19T14:57:54;1999.90;;;999.90;;
10315;SDS011;5203;48.976;8.306;2023-09-19T15:00:23;1999.90;;;999.90;;
10315;SDS011;5203;48.976;8.306;2023-09-19T15:02:49;1999.90;;;999.90;;
10315;SDS011;5203;48.976;8.306;2023-09-19T15:05:16;1999.90;;;999.90;;
10315;SDS011;5203;48.976;8.306;2023-09-19T15:07:42;1999.90;;;999.90;;
10315;SDS011;5203;48.976;8.306;2023-09-19T15:10:08;1999.90;;;999.90;;